createdAt,value
2022-11-07T00:00:51.349Z,98988.50
2022-11-07T00:03:19.972Z,98984.72
2022-11-07T00:05:50.734Z,98985.66
2022-11-07T00:08:21.455Z,98987.44
2022-11-07T00:10:55.975Z,98972.78
2022-11-07T00:13:28.059Z,98969.56
2022-11-07T00:16:07.548Z,98980.19
2022-11-07T00:18:36.850Z,98976.78
2022-11-07T00:21:11.274Z,98969.41
2022-11-07T00:23:43.159Z,98973.16
2022-11-07T00:26:15.663Z,98975.59
2022-11-07T00:28:46.196Z,98976.81
2022-11-07T00:31:17.073Z,98964.63
2022-11-07T00:33:46.925Z,98967.91
2022-11-07T00:36:22.073Z,98966.56
2022-11-07T00:38:51.531Z,98954.28
2022-11-07T00:41:20.894Z,98959.00
2022-11-07T00:43:49.801Z,98956.81
2022-11-07T00:46:19.678Z,98961.13
2022-11-07T00:48:50.311Z,98964.44
2022-11-07T00:51:24.678Z,98959.31
2022-11-07T00:53:54.633Z,98946.69
2022-11-07T00:56:27.750Z,98947.69
2022-11-07T00:58:57.417Z,98943.25
2022-11-07T01:01:28.474Z,98958.22
2022-11-07T01:04:16.781Z,98953.78
2022-11-07T01:06:47.654Z,98954.47
2022-11-07T01:09:20.452Z,98965.16
2022-11-07T01:11:51.277Z,98960.03
2022-11-07T01:14:23.136Z,98955.75
2022-11-07T01:16:53.120Z,98947.16
2022-11-07T01:19:22.656Z,98958.44
2022-11-07T01:21:53.109Z,98946.88
2022-11-07T01:24:21.807Z,98950.03
2022-11-07T01:26:52.128Z,98952.03
2022-11-07T01:29:21.607Z,98947.81
2022-11-07T01:31:51.036Z,98950.59
2022-11-07T01:34:19.861Z,98947.66
2022-11-07T01:37:18.844Z,98944.53
2022-11-07T01:39:56.275Z,98945.09
2022-11-07T01:42:26.085Z,98938.34
2022-11-07T01:45:00.176Z,98938.06
2022-11-07T01:47:33.011Z,98936.63
2022-11-07T01:50:05.544Z,98934.59
2022-11-07T01:52:40.027Z,98934.06
2022-11-07T01:55:12.598Z,98928.31
2022-11-07T01:57:46.943Z,98932.47
2022-11-07T02:00:20.272Z,98919.28
2022-11-07T02:02:52.829Z,98922.75
2022-11-07T02:05:30.403Z,98926.25
2022-11-07T02:08:06.406Z,98916.53
2022-11-07T02:10:37.272Z,98922.69
2022-11-07T02:13:08.810Z,98924.19
2022-11-07T02:15:39.115Z,98921.56
2022-11-07T02:18:31.377Z,98920.41
2022-11-07T02:21:07.630Z,98923.53
2022-11-07T02:23:50.662Z,98918.06
2022-11-07T02:26:21.549Z,98910.31
2022-11-07T02:29:03.902Z,98921.22
2022-11-07T02:31:34.644Z,98928.53
2022-11-07T02:34:03.052Z,98912.34
2022-11-07T02:36:31.898Z,98914.84
2022-11-07T02:39:02.382Z,98907.91
2022-11-07T02:41:35.717Z,98903.97
2022-11-07T02:44:11.396Z,98898.53
2022-11-07T02:46:41.378Z,98896.75
2022-11-07T02:49:10.307Z,98896.94
2022-11-07T02:51:38.805Z,98885.38
2022-11-07T02:54:07.983Z,98890.50
2022-11-07T02:56:38.908Z,98901.88
2022-11-07T02:59:13.122Z,98881.25
2022-11-07T03:01:42.659Z,98870.69
2022-11-07T03:04:12.658Z,98867.41
2022-11-07T03:06:41.173Z,98867.56
2022-11-07T03:09:09.823Z,98860.47
2022-11-07T03:11:39.926Z,98868.88
2022-11-07T03:14:09.572Z,98861.16
2022-11-07T03:16:39.068Z,98855.84
2022-11-07T03:19:08.210Z,98867.25
2022-11-07T03:21:36.766Z,98853.88
2022-11-07T03:24:05.716Z,98856.84
2022-11-07T03:26:34.282Z,98838.81
2022-11-07T03:29:04.344Z,98851.56
2022-11-07T03:31:35.039Z,98841.13
2022-11-07T03:34:03.482Z,98837.81
2022-11-07T03:36:32.068Z,98835.16
2022-11-07T03:39:00.515Z,98830.69
2022-11-07T03:41:31.125Z,98815.97
2022-11-07T03:43:59.607Z,98818.81
2022-11-07T03:46:29.667Z,98824.09
2022-11-07T03:48:58.116Z,98806.75
2022-11-07T03:51:26.590Z,98808.03
2022-11-07T03:53:56.288Z,98817.63
2022-11-07T03:56:25.012Z,98821.63
2022-11-07T03:58:55.024Z,98823.44
2022-11-07T04:01:25.849Z,98816.50
2022-11-07T04:03:56.433Z,98814.84
2022-11-07T04:06:25.896Z,98800.16
2022-11-07T04:08:55.256Z,98802.09
2022-11-07T04:11:43.440Z,98818.91
2022-11-07T04:14:29.666Z,98802.22
2022-11-07T04:17:15.806Z,98805.19
2022-11-07T04:19:46.411Z,98799.72
2022-11-07T04:22:16.749Z,98813.78
2022-11-07T04:24:46.607Z,98793.06
2022-11-07T04:27:34.190Z,98796.09
2022-11-07T04:30:19.769Z,98798.25
2022-11-07T04:32:52.171Z,98799.91
2022-11-07T04:35:23.695Z,98799.91
2022-11-07T04:37:53.471Z,98800.56
2022-11-07T04:40:23.535Z,98799.88
2022-11-07T04:42:53.309Z,98791.94
2022-11-07T04:45:23.816Z,98784.63
2022-11-07T04:47:54.024Z,98789.09
2022-11-07T04:50:24.112Z,98791.59
2022-11-07T04:52:53.226Z,98787.44
2022-11-07T04:55:24.213Z,98774.88
2022-11-07T04:57:54.215Z,98775.69
2022-11-07T05:00:25.978Z,98778.47
2022-11-07T05:02:55.566Z,98780.31
2022-11-07T05:05:25.676Z,98796.53
2022-11-07T05:07:57.163Z,98776.69
2022-11-07T05:10:32.430Z,98773.22
2022-11-07T05:13:07.179Z,98786.25
2022-11-07T05:15:36.064Z,98786.63
2022-11-07T05:18:07.458Z,98788.75
2022-11-07T05:20:39.824Z,98791.09
2022-11-07T05:23:14.228Z,98784.63
2022-11-07T05:25:44.730Z,98802.00
2022-11-07T05:28:14.115Z,98792.25
2022-11-07T05:30:46.691Z,98801.88
2022-11-07T05:33:17.917Z,98789.28
2022-11-07T05:35:48.713Z,98783.66
2022-11-07T05:38:17.159Z,98787.94
2022-11-07T05:40:47.778Z,98781.16
2022-11-07T05:43:17.431Z,98791.03
2022-11-07T05:45:46.552Z,98776.44
2022-11-07T05:48:21.219Z,98761.75
2022-11-07T05:50:51.636Z,98773.44
2022-11-07T05:53:21.746Z,98758.63
2022-11-07T05:55:51.384Z,98762.91
2022-11-07T05:58:22.856Z,98756.09
2022-11-07T06:00:51.473Z,98757.69
2022-11-07T06:03:21.551Z,98763.69
2022-11-07T06:05:51.795Z,98758.69
2022-11-07T06:08:21.498Z,98771.22
2022-11-07T06:10:50.694Z,98759.47
2022-11-07T06:13:23.741Z,98754.09
2022-11-07T06:15:52.305Z,98748.16
2022-11-07T06:18:25.504Z,98758.13
2022-11-07T06:20:55.750Z,98752.50
2022-11-07T06:23:25.239Z,98752.91
2022-11-07T06:25:55.015Z,98754.09
2022-11-07T06:28:24.656Z,98742.00
2022-11-07T06:31:02.006Z,98742.28
2022-11-07T06:33:31.238Z,98750.94
2022-11-07T06:36:09.319Z,98736.50
2022-11-07T06:38:39.499Z,98744.94
2022-11-07T06:41:11.479Z,98738.63
2022-11-07T06:43:40.890Z,98758.41
2022-11-07T06:46:14.509Z,98748.34
2022-11-07T06:48:43.478Z,98749.81
2022-11-07T06:51:14.275Z,98730.59
2022-11-07T06:53:43.351Z,98743.41
2022-11-07T06:56:17.351Z,98740.13
2022-11-07T06:58:45.671Z,98743.94
2022-11-07T07:01:17.538Z,98739.94
2022-11-07T07:03:46.623Z,98735.66
2022-11-07T07:06:20.066Z,98722.94
2022-11-07T07:09:23.490Z,98729.69
2022-11-07T07:12:01.562Z,98728.78
2022-11-07T07:14:49.226Z,98751.47
2022-11-07T07:17:23.528Z,98750.13
2022-11-07T07:19:59.888Z,98734.44
2022-11-07T07:22:58.907Z,98745.72
2022-11-07T07:25:29.992Z,98750.00
2022-11-07T07:44:54.859Z,98749.59
2022-11-07T07:58:11.624Z,98772.81
2022-11-07T08:00:47.477Z,98763.88
2022-11-07T08:03:24.215Z,98763.03
2022-11-07T08:06:13.909Z,98757.28
2022-11-07T08:09:38.293Z,98761.88
2022-11-07T08:12:58.809Z,98749.97
2022-11-07T08:15:52.075Z,98762.75
2022-11-07T08:19:14.524Z,98775.66
2022-11-07T08:22:41.425Z,98754.44
2022-11-07T08:25:27.728Z,98772.75
2022-11-07T08:27:57.425Z,98761.13
2022-11-07T08:30:27.472Z,98773.41
2022-11-07T08:33:01.195Z,98778.09
2022-11-07T08:36:25.135Z,98779.25
2022-11-07T09:10:24.229Z,98814.75
2022-11-07T09:13:32.161Z,98804.84
2022-11-07T10:51:38.880Z,98744.84
2022-11-07T10:58:08.361Z,98738.25
2022-11-07T11:00:46.112Z,98730.91
2022-11-07T11:03:43.249Z,98744.34
2022-11-07T11:52:56.668Z,98663.16
2022-11-07T12:07:37.083Z,98672.47
2022-11-07T12:10:58.463Z,98652.44
2022-11-07T12:17:29.683Z,98638.34
2022-11-07T12:20:38.156Z,98619.78
2022-11-07T12:23:23.369Z,98618.81
2022-11-07T12:26:02.461Z,98609.13
2022-11-07T12:28:55.404Z,98608.31
2022-11-07T12:31:59.778Z,98591.94
2022-11-07T12:34:56.097Z,98580.09
2022-11-07T12:37:46.775Z,98593.84
2022-11-07T12:40:29.656Z,98577.00
2022-11-07T12:43:11.139Z,98581.31
2022-11-07T12:45:51.211Z,98578.25
2022-11-07T12:48:56.561Z,98583.34
2022-11-07T12:51:40.069Z,98579.22
2022-11-07T12:54:24.508Z,98595.78
2022-11-07T12:56:54.407Z,98586.97
2022-11-07T12:59:29.446Z,98590.91
2022-11-07T13:02:06.347Z,98591.31
2022-11-07T13:04:45.618Z,98592.47
2022-11-07T13:07:23.360Z,98604.03
2022-11-07T13:09:58.552Z,98615.75
2022-11-07T13:12:33.723Z,98609.97
2022-11-07T13:15:06.076Z,98603.81
2022-11-07T13:17:41.968Z,98598.94
2022-11-07T13:20:28.958Z,98596.94
2022-11-07T13:23:03.562Z,98556.84
2022-11-07T13:25:35.934Z,98544.84
2022-11-07T13:28:24.081Z,98525.44
2022-11-07T13:31:02.457Z,98529.34
2022-11-07T13:33:38.082Z,98523.81
2022-11-07T13:36:16.401Z,98510.31
2022-11-07T13:38:51.531Z,98531.38
2022-11-07T13:41:22.454Z,98522.22
2022-11-07T13:44:03.631Z,98514.44
2022-11-07T13:46:52.861Z,98498.44
2022-11-07T13:49:29.381Z,98499.63
2022-11-07T13:52:17.128Z,98480.66
2022-11-07T13:55:10.241Z,98481.03
2022-11-07T13:58:51.646Z,98468.94
2022-11-07T14:02:05.048Z,98463.22
2022-11-07T14:04:44.616Z,98467.50
2022-11-07T14:08:15.469Z,98465.66
2022-11-07T14:11:10.536Z,98465.03
2022-11-07T14:13:43.825Z,98478.72
2022-11-07T14:16:24.024Z,98459.53
2022-11-07T14:18:58.224Z,98440.50
2022-11-07T14:21:31.938Z,98444.09
2022-11-07T14:24:01.210Z,98434.34
2022-11-07T14:26:33.127Z,98426.59
2022-11-07T14:29:04.347Z,98466.50
2022-11-07T14:31:38.260Z,98424.56
2022-11-07T14:34:19.843Z,98430.84
2022-11-07T14:36:50.096Z,98417.34
2022-11-07T14:39:31.323Z,98425.31
2022-11-07T14:42:05.028Z,98432.34
2022-11-07T14:44:53.727Z,98421.47
2022-11-07T14:47:28.759Z,98421.47
2022-11-07T14:49:58.858Z,98430.03
2022-11-07T14:52:33.000Z,98422.44
2022-11-07T14:55:07.257Z,98416.31
2022-11-07T14:57:40.280Z,98410.78
2022-11-07T15:00:15.906Z,98412.00
2022-11-07T15:02:48.983Z,98413.25
2022-11-07T15:05:27.292Z,98393.41
2022-11-07T15:07:56.793Z,98375.81
2022-11-07T15:10:31.456Z,98369.50
2022-11-07T15:38:44.734Z,98321.44
2022-11-07T16:52:46.633Z,98180.34
2022-11-07T17:23:51.015Z,98119.69
2022-11-07T17:26:22.062Z,98131.34
2022-11-07T17:28:51.346Z,98131.09
2022-11-07T17:31:22.832Z,98130.25
2022-11-07T17:33:51.546Z,98111.91
2022-11-07T17:36:36.597Z,98105.59
2022-11-07T17:39:12.012Z,98107.03
2022-11-07T17:41:42.721Z,98104.34
2022-11-07T17:44:12.698Z,98109.06
2022-11-07T17:46:43.907Z,98090.25
2022-11-07T17:49:22.180Z,98095.56
2022-11-07T17:51:54.440Z,98094.72
2022-11-07T17:54:32.441Z,98092.09
2022-11-07T17:57:00.798Z,98084.75
2022-11-07T17:59:29.574Z,98077.81
2022-11-07T18:01:59.384Z,98078.00
2022-11-07T18:04:28.121Z,98074.75
2022-11-07T18:06:56.729Z,98063.28
2022-11-07T18:09:25.693Z,98067.38
2022-11-07T18:11:55.597Z,98056.53
2022-11-07T18:14:25.722Z,98051.47
2022-11-07T18:16:54.675Z,98051.84
2022-11-07T18:19:25.466Z,98051.25
2022-11-07T18:21:55.067Z,98044.50
2022-11-07T18:24:24.518Z,98039.41
2022-11-07T18:26:57.041Z,98043.66
2022-11-07T18:29:25.869Z,98030.19
2022-11-07T18:31:54.909Z,98033.28
2022-11-07T18:34:24.844Z,98030.84
2022-11-07T18:36:54.072Z,98024.69
2022-11-07T18:39:23.984Z,98023.88
2022-11-07T18:41:54.245Z,98012.66
2022-11-07T18:44:25.086Z,98006.53
2022-11-07T18:46:53.572Z,98003.50
2022-11-07T18:49:22.079Z,97991.63
2022-11-07T18:51:52.318Z,97989.59
2022-11-07T18:54:26.135Z,97984.69
2022-11-07T18:56:54.900Z,97969.63
2022-11-07T18:59:24.954Z,97986.75
2022-11-07T19:01:53.530Z,97978.59
2022-11-07T19:04:21.932Z,97969.81
2022-11-07T19:06:59.203Z,97971.66
2022-11-07T19:09:30.290Z,97971.44
2022-11-07T19:11:59.841Z,97951.44
2022-11-07T19:14:30.746Z,97960.63
2022-11-07T19:16:59.680Z,97950.84
2022-11-07T19:19:28.580Z,97948.19
2022-11-07T19:21:58.027Z,97947.16
2022-11-07T19:24:27.258Z,97939.81
2022-11-07T19:26:56.017Z,97929.22
2022-11-07T19:29:24.508Z,97926.16
2022-11-07T19:32:01.247Z,97914.50
2022-11-07T19:34:30.494Z,97921.03
2022-11-07T19:37:00.246Z,97900.84
2022-11-07T19:39:32.461Z,97912.69
2022-11-07T19:42:01.466Z,97937.56
2022-11-07T19:44:30.197Z,97935.31
2022-11-07T19:47:00.317Z,97923.69
2022-11-07T19:49:28.872Z,97939.59
2022-11-07T19:51:58.000Z,97936.97
2022-11-07T19:54:27.769Z,97933.28
2022-11-07T19:56:58.626Z,97927.91
2022-11-07T19:59:27.425Z,97920.13
2022-11-07T20:02:18.283Z,97911.31
2022-11-07T20:04:46.989Z,97916.41
2022-11-07T20:07:16.358Z,97922.25
2022-11-07T20:09:45.039Z,97933.44
2022-11-07T20:12:14.285Z,97934.00
2022-11-07T20:14:42.715Z,97926.66
2022-11-07T20:17:11.215Z,97916.47
2022-11-07T20:19:40.662Z,97907.69
2022-11-07T20:22:12.337Z,97928.03
2022-11-07T20:24:42.291Z,97921.31
2022-11-07T20:27:11.346Z,97920.06
2022-11-07T20:29:39.731Z,97905.81
2022-11-07T20:32:08.278Z,97906.44
2022-11-07T20:34:36.877Z,97909.31
2022-11-07T20:37:07.832Z,97910.72
2022-11-07T20:39:42.894Z,97923.97
2022-11-07T20:42:11.363Z,97904.09
2022-11-07T20:44:41.279Z,97912.03
2022-11-07T20:47:11.484Z,97933.63
2022-11-07T20:49:40.154Z,97910.19
2022-11-07T20:52:08.642Z,97924.91
2022-11-07T20:54:39.369Z,97903.53
2022-11-07T20:57:08.376Z,97902.53
2022-11-07T20:59:41.753Z,97887.88
2022-11-07T21:02:13.553Z,97901.13
2022-11-07T21:05:03.169Z,97904.19
2022-11-07T21:07:33.491Z,97920.34
2022-11-07T21:10:03.787Z,97925.00
2022-11-07T21:12:33.851Z,97934.94
2022-11-07T21:15:02.797Z,97901.53
2022-11-07T21:17:31.363Z,97936.50
2022-11-07T21:19:59.973Z,97925.69
2022-11-07T21:22:29.670Z,97940.94
2022-11-07T21:24:58.804Z,97943.78
2022-11-07T21:27:28.869Z,97948.63
2022-11-07T21:29:57.509Z,97938.81
2022-11-07T21:32:26.166Z,97961.34
2022-11-07T21:35:00.793Z,97966.59
2022-11-07T21:37:29.720Z,97953.75
2022-11-07T21:39:58.700Z,97979.16
2022-11-07T21:42:28.478Z,97982.31
2022-11-07T21:44:56.927Z,97936.59
2022-11-07T21:47:25.972Z,97992.09
2022-11-07T21:49:55.415Z,97997.44
2022-11-07T21:52:24.294Z,97978.94
2022-11-07T21:54:57.444Z,97973.81
2022-11-07T21:57:29.854Z,97985.59
2022-11-07T21:59:59.911Z,97966.78
2022-11-07T22:02:28.425Z,97980.97
2022-11-07T22:04:57.216Z,97962.41
2022-11-07T22:07:25.760Z,97973.38
2022-11-07T22:09:54.559Z,98001.16
2022-11-07T22:12:23.066Z,97990.16
2022-11-07T22:14:51.960Z,98005.09
2022-11-07T22:17:22.823Z,98021.34
2022-11-07T22:19:51.895Z,98028.38
2022-11-07T22:22:21.350Z,98034.78
2022-11-07T22:24:51.215Z,98039.44
2022-11-07T22:27:20.061Z,98047.78
2022-11-07T22:29:48.666Z,98051.19
2022-11-07T22:32:17.734Z,98044.09
2022-11-07T22:34:47.681Z,98064.31
2022-11-07T22:37:16.155Z,98067.50
2022-11-07T22:39:45.408Z,98065.31
2022-11-07T22:42:17.350Z,98064.31
2022-11-07T22:44:48.104Z,98068.59
2022-11-07T22:47:16.970Z,98094.44
2022-11-07T22:49:48.066Z,98097.81
2022-11-07T22:52:16.833Z,98097.63
2022-11-07T22:54:45.425Z,98091.44
2022-11-07T22:57:17.790Z,98101.63
2022-11-07T22:59:47.361Z,98097.88
2022-11-07T23:02:17.246Z,98110.88
2022-11-07T23:04:47.993Z,98101.16
2022-11-07T23:07:20.063Z,98131.25
2022-11-07T23:09:48.883Z,98133.53
2022-11-07T23:12:17.977Z,98126.81
2022-11-07T23:14:48.212Z,98140.56
2022-11-07T23:17:22.937Z,98160.75
2022-11-07T23:19:55.125Z,98144.56
2022-11-07T23:22:23.801Z,98150.56
2022-11-07T23:24:53.137Z,98157.81
2022-11-07T23:27:22.251Z,98161.16
2022-11-07T23:29:50.970Z,98161.31
2022-11-07T23:32:19.943Z,98156.41
2022-11-07T23:34:50.468Z,98157.22
2022-11-07T23:37:20.998Z,98179.47
2022-11-07T23:39:52.452Z,98194.56
2022-11-07T23:42:21.122Z,98198.16
2022-11-07T23:45:07.585Z,98189.97
2022-11-07T23:47:54.152Z,98183.50
2022-11-07T23:50:39.707Z,98194.03
2022-11-07T23:53:32.010Z,98205.19
2022-11-07T23:55:59.632Z,98198.41
2022-11-07T23:58:45.829Z,98207.69
